createdAt,value
2023-05-01T00:00:03.545Z,1006.46
2023-05-01T00:00:26.303Z,1006.42
2023-05-01T00:00:47.384Z,1006.46
2023-05-01T00:01:08.448Z,1006.44
2023-05-01T00:01:29.508Z,1006.42
2023-05-01T00:01:50.593Z,1006.42
2023-05-01T00:02:11.745Z,1006.42
2023-05-01T00:02:32.971Z,1006.44
2023-05-01T00:02:54.204Z,1006.46
2023-05-01T00:03:15.423Z,1006.42
2023-05-01T00:03:36.726Z,1006.44
2023-05-01T00:03:58.312Z,1006.44
2023-05-01T00:04:19.853Z,1006.42
2023-05-01T00:04:41.087Z,1006.44
2023-05-01T00:05:02.248Z,1006.44
2023-05-01T00:05:23.327Z,1006.44
2023-05-01T00:05:44.370Z,1006.44
2023-05-01T00:06:05.462Z,1006.42
2023-05-01T00:06:26.574Z,1006.44
2023-05-01T00:06:47.624Z,1006.42
2023-05-01T00:07:08.698Z,1006.44
2023-05-01T00:07:29.935Z,1006.40
2023-05-01T00:07:51.225Z,1006.40
2023-05-01T00:08:12.284Z,1006.40
2023-05-01T00:08:33.356Z,1006.40
2023-05-01T00:08:54.414Z,1006.40
2023-05-01T00:09:15.518Z,1006.42
2023-05-01T00:09:36.563Z,1006.38
2023-05-01T00:09:58.150Z,1006.40
2023-05-01T00:10:19.423Z,1006.36
2023-05-01T00:10:40.473Z,1006.38
2023-05-01T00:11:01.533Z,1006.32
2023-05-01T00:11:22.625Z,1006.34
2023-05-01T00:11:43.649Z,1006.34
2023-05-01T00:12:04.703Z,1006.34
2023-05-01T00:12:25.765Z,1006.32
2023-05-01T00:12:47.054Z,1006.32
2023-05-01T00:13:08.330Z,1006.32
2023-05-01T00:13:29.405Z,1006.32
2023-05-01T00:13:50.467Z,1006.32
2023-05-01T00:14:11.516Z,1006.30
2023-05-01T00:14:32.626Z,1006.28
2023-05-01T00:14:53.665Z,1006.28
2023-05-01T00:15:14.783Z,1006.28
2023-05-01T00:15:35.839Z,1006.26
2023-05-01T00:15:56.919Z,1006.28
2023-05-01T00:16:18.056Z,1006.22
2023-05-01T00:16:39.145Z,1006.26
2023-05-01T00:17:00.294Z,1006.22
2023-05-01T00:17:21.383Z,1006.22
2023-05-01T00:17:42.461Z,1006.22
2023-05-01T00:18:03.629Z,1006.18
2023-05-01T00:18:24.970Z,1006.16
2023-05-01T00:18:46.010Z,1006.20
2023-05-01T00:19:07.073Z,1006.16
2023-05-01T00:19:28.129Z,1006.16
2023-05-01T00:19:49.189Z,1006.16
2023-05-01T00:20:10.258Z,1006.16
2023-05-01T00:20:31.311Z,1006.16
2023-05-01T00:20:52.368Z,1006.16
2023-05-01T00:21:13.461Z,1006.16
2023-05-01T00:21:34.510Z,1006.15
2023-05-01T00:21:55.557Z,1006.16
2023-05-01T00:22:16.608Z,1006.16
2023-05-01T00:22:37.663Z,1006.15
2023-05-01T00:22:58.724Z,1006.15
2023-05-01T00:23:20.024Z,1006.15
2023-05-01T00:23:41.112Z,1006.15
2023-05-01T00:24:02.180Z,1006.15
2023-05-01T00:24:23.245Z,1006.16
2023-05-01T00:24:44.351Z,1006.13
2023-05-01T00:25:05.413Z,1006.11
2023-05-01T00:25:26.482Z,1006.13
2023-05-01T00:25:47.621Z,1006.13
2023-05-01T00:26:08.673Z,1006.13
2023-05-01T00:26:29.763Z,1006.13
2023-05-01T00:26:50.791Z,1006.13
2023-05-01T00:27:11.871Z,1006.13
2023-05-01T00:27:32.928Z,1006.13
2023-05-01T00:27:54.002Z,1006.13
2023-05-01T00:28:15.049Z,1006.09
2023-05-01T00:28:36.183Z,1006.09
2023-05-01T00:28:57.274Z,1006.09
2023-05-01T00:29:18.326Z,1006.11
2023-05-01T00:29:39.413Z,1006.13
2023-05-01T00:30:00.445Z,1006.11
2023-05-01T00:30:21.500Z,1006.11
2023-05-01T00:30:42.561Z,1006.11
2023-05-01T00:31:03.615Z,1006.09
2023-05-01T00:31:24.700Z,1006.07
2023-05-01T00:31:45.912Z,1006.09
2023-05-01T00:32:06.983Z,1006.05
2023-05-01T00:32:28.074Z,1006.09
2023-05-01T00:32:49.184Z,1006.09
2023-05-01T00:33:10.557Z,1006.09
2023-05-01T00:33:31.603Z,1006.09
2023-05-01T00:33:52.728Z,1006.09
2023-05-01T00:34:14.009Z,1006.11
2023-05-01T00:34:35.060Z,1006.07
2023-05-01T00:34:56.115Z,1006.07
2023-05-01T00:35:17.178Z,1006.07
2023-05-01T00:35:38.236Z,1006.07
2023-05-01T00:35:59.297Z,1006.05
2023-05-01T00:36:20.365Z,1006.05
2023-05-01T00:36:41.423Z,1006.05
2023-05-01T00:37:02.482Z,1006.05
2023-05-01T00:37:23.584Z,1006.05
2023-05-01T00:37:44.646Z,1006.01
2023-05-01T00:38:05.715Z,1006.03
2023-05-01T00:38:26.759Z,1005.99
2023-05-01T00:38:47.824Z,1006.01
2023-05-01T00:39:08.938Z,1006.03
2023-05-01T00:39:30.020Z,1006.01
2023-05-01T00:39:51.090Z,1006.03
2023-05-01T00:40:12.126Z,1005.99
2023-05-01T00:40:33.202Z,1005.99
2023-05-01T00:40:54.253Z,1005.99
2023-05-01T00:41:15.322Z,1005.99
2023-05-01T00:41:36.404Z,1005.99
2023-05-01T00:41:57.482Z,1005.99
2023-05-01T00:42:18.538Z,1005.95
2023-05-01T00:42:39.609Z,1005.99
2023-05-01T00:43:00.649Z,1005.97
2023-05-01T00:43:21.724Z,1005.95
2023-05-01T00:43:42.803Z,1005.93
2023-05-01T00:44:03.836Z,1005.93
2023-05-01T00:44:25.179Z,1005.93
2023-05-01T00:44:46.432Z,1005.93
2023-05-01T00:45:07.469Z,1005.93
2023-05-01T00:45:28.710Z,1005.93
2023-05-01T00:45:49.799Z,1005.93
2023-05-01T00:46:10.890Z,1005.91
2023-05-01T00:46:32.023Z,1005.93
2023-05-01T00:46:53.176Z,1005.95
2023-05-01T00:47:14.233Z,1005.93
2023-05-01T00:47:35.325Z,1005.93
2023-05-01T00:47:56.396Z,1005.95
2023-05-01T00:48:17.458Z,1005.97
2023-05-01T00:48:38.509Z,1005.95
2023-05-01T00:48:59.596Z,1005.95
2023-05-01T00:49:20.637Z,1005.93
2023-05-01T00:49:41.725Z,1005.91
2023-05-01T00:50:02.830Z,1005.93
2023-05-01T00:50:23.882Z,1005.95
2023-05-01T00:50:44.963Z,1005.95
2023-05-01T00:51:06.063Z,1005.95
2023-05-01T00:51:27.129Z,1005.95
2023-05-01T00:51:48.197Z,1005.93
2023-05-01T00:52:09.245Z,1005.93
2023-05-01T00:52:30.317Z,1005.91
2023-05-01T00:52:51.404Z,1005.93
2023-05-01T00:53:12.473Z,1005.91
2023-05-01T00:53:33.515Z,1005.91
2023-05-01T00:53:54.568Z,1005.93
2023-05-01T00:54:15.644Z,1005.91
2023-05-01T00:54:36.694Z,1005.91
2023-05-01T00:54:57.795Z,1005.91
2023-05-01T00:55:18.902Z,1005.89
2023-05-01T00:55:39.990Z,1005.89
2023-05-01T00:56:01.064Z,1005.91
2023-05-01T00:56:22.114Z,1005.91
2023-05-01T00:56:43.217Z,1005.91
2023-05-01T00:57:04.256Z,1005.89
2023-05-01T00:57:25.321Z,1005.89
2023-05-01T00:57:46.373Z,1005.89
2023-05-01T00:58:07.432Z,1005.85
2023-05-01T00:58:28.491Z,1005.83
2023-05-01T00:58:49.573Z,1005.89
2023-05-01T00:59:10.631Z,1005.83
2023-05-01T00:59:31.696Z,1005.81
2023-05-01T00:59:52.778Z,1005.83
2023-05-01T01:00:13.852Z,1005.83
2023-05-01T01:00:35.128Z,1005.83
2023-05-01T01:00:56.244Z,1005.81
2023-05-01T01:01:17.342Z,1005.81
2023-05-01T01:01:38.494Z,1005.85
2023-05-01T01:01:59.556Z,1005.81
2023-05-01T01:02:20.633Z,1005.79
2023-05-01T01:02:41.751Z,1005.81
2023-05-01T01:03:02.857Z,1005.81
2023-05-01T01:03:23.912Z,1005.81
2023-05-01T01:03:44.965Z,1005.77
2023-05-01T01:04:06.042Z,1005.77
2023-05-01T01:04:27.088Z,1005.77
2023-05-01T01:04:48.243Z,1005.77
2023-05-01T01:05:09.299Z,1005.77
2023-05-01T01:05:30.406Z,1005.75
2023-05-01T01:05:51.668Z,1005.73
2023-05-01T01:06:12.780Z,1005.77
2023-05-01T01:06:33.837Z,1005.75
2023-05-01T01:06:54.880Z,1005.73
2023-05-01T01:07:15.957Z,1005.73
2023-05-01T01:07:37.029Z,1005.73
2023-05-01T01:07:58.105Z,1005.73
2023-05-01T01:08:19.155Z,1005.73
2023-05-01T01:08:40.207Z,1005.73
2023-05-01T01:09:01.272Z,1005.73
2023-05-01T01:09:22.341Z,1005.75
2023-05-01T01:09:43.401Z,1005.73
2023-05-01T01:10:04.465Z,1005.73
2023-05-01T01:10:25.512Z,1005.71
2023-05-01T01:10:46.625Z,1005.71
2023-05-01T01:11:07.883Z,1005.69
2023-05-01T01:11:29.004Z,1005.71
2023-05-01T01:11:50.041Z,1005.71
2023-05-01T01:12:11.105Z,1005.71
2023-05-01T01:12:32.176Z,1005.71
2023-05-01T01:12:53.223Z,1005.68
2023-05-01T01:13:14.281Z,1005.68
2023-05-01T01:13:35.352Z,1005.68
2023-05-01T01:13:56.416Z,1005.68
2023-05-01T01:14:17.493Z,1005.68
2023-05-01T01:14:38.556Z,1005.66
2023-05-01T01:14:59.591Z,1005.66
2023-05-01T01:15:20.651Z,1005.66
2023-05-01T01:15:41.754Z,1005.68
2023-05-01T01:16:02.867Z,1005.66
2023-05-01T01:16:24.035Z,1005.68
2023-05-01T01:16:45.203Z,1005.66
2023-05-01T01:17:06.437Z,1005.66
2023-05-01T01:17:27.548Z,1005.64
2023-05-01T01:17:48.694Z,1005.60
2023-05-01T01:18:09.884Z,1005.58
2023-05-01T01:18:30.955Z,1005.64
2023-05-01T01:18:52.022Z,1005.64
2023-05-01T01:19:13.065Z,1005.58
2023-05-01T01:19:34.132Z,1005.58
2023-05-01T01:19:55.359Z,1005.58
2023-05-01T01:20:16.542Z,1005.54
2023-05-01T01:20:37.601Z,1005.54
2023-05-01T01:20:58.699Z,1005.56
2023-05-01T01:21:19.856Z,1005.56
2023-05-01T01:21:40.925Z,1005.56
2023-05-01T01:22:01.983Z,1005.52
2023-05-01T01:22:23.047Z,1005.54
2023-05-01T01:22:44.092Z,1005.54
2023-05-01T01:23:05.150Z,1005.54
2023-05-01T01:23:26.237Z,1005.52
2023-05-01T01:23:47.321Z,1005.54
2023-05-01T01:24:08.355Z,1005.52
2023-05-01T01:24:29.410Z,1005.54
2023-05-01T01:24:50.462Z,1005.52
2023-05-01T01:25:11.545Z,1005.54
2023-05-01T01:25:32.611Z,1005.50
2023-05-01T01:25:53.725Z,1005.52
2023-05-01T01:26:14.750Z,1005.52
2023-05-01T01:26:35.845Z,1005.52
2023-05-01T01:26:56.982Z,1005.50
2023-05-01T01:27:18.012Z,1005.48
2023-05-01T01:27:39.079Z,1005.48
2023-05-01T01:28:00.134Z,1005.48
2023-05-01T01:28:21.193Z,1005.48
2023-05-01T01:28:42.242Z,1005.48
2023-05-01T01:29:03.300Z,1005.48
2023-05-01T01:29:24.355Z,1005.48
2023-05-01T01:29:45.414Z,1005.48
2023-05-01T01:30:06.473Z,1005.48
2023-05-01T01:30:27.529Z,1005.48
2023-05-01T01:30:48.710Z,1005.46
2023-05-01T01:31:09.878Z,1005.46
2023-05-01T01:31:30.999Z,1005.48
2023-05-01T01:31:52.049Z,1005.48
2023-05-01T01:32:13.143Z,1005.50
2023-05-01T01:32:34.220Z,1005.50
2023-05-01T01:32:55.312Z,1005.46
2023-05-01T01:33:16.374Z,1005.50
2023-05-01T01:33:37.431Z,1005.48
2023-05-01T01:33:58.483Z,1005.50
2023-05-01T01:34:19.545Z,1005.52
2023-05-01T01:34:40.602Z,1005.46
2023-05-01T01:35:01.689Z,1005.46
2023-05-01T01:35:22.733Z,1005.48
2023-05-01T01:35:43.793Z,1005.44
2023-05-01T01:36:04.857Z,1005.46
2023-05-01T01:36:25.915Z,1005.48
2023-05-01T01:36:46.978Z,1005.44
2023-05-01T01:37:08.270Z,1005.46
2023-05-01T01:37:29.394Z,1005.46
2023-05-01T01:37:50.434Z,1005.44
2023-05-01T01:38:11.499Z,1005.46
2023-05-01T01:38:32.553Z,1005.46
2023-05-01T01:38:53.605Z,1005.46
2023-05-01T01:39:14.675Z,1005.46
2023-05-01T01:39:35.720Z,1005.46
2023-05-01T01:39:57.025Z,1005.46
2023-05-01T01:40:18.274Z,1005.48
2023-05-01T01:40:39.365Z,1005.48
2023-05-01T01:41:00.413Z,1005.50
2023-05-01T01:41:21.462Z,1005.50
2023-05-01T01:41:42.517Z,1005.48
2023-05-01T01:42:03.605Z,1005.48
2023-05-01T01:42:24.846Z,1005.46
2023-05-01T01:42:45.940Z,1005.48
2023-05-01T01:43:07.000Z,1005.46
2023-05-01T01:43:28.072Z,1005.46
2023-05-01T01:43:49.125Z,1005.48
2023-05-01T01:44:10.197Z,1005.46
2023-05-01T01:44:31.247Z,1005.48
2023-05-01T01:44:52.299Z,1005.46
2023-05-01T01:45:13.369Z,1005.46
2023-05-01T01:45:34.417Z,1005.44
2023-05-01T01:45:55.546Z,1005.44
2023-05-01T01:46:16.665Z,1005.42
2023-05-01T01:46:37.998Z,1005.46
2023-05-01T01:46:59.195Z,1005.44
2023-05-01T01:47:20.279Z,1005.44
2023-05-01T01:47:41.708Z,1005.40
2023-05-01T01:48:03.082Z,1005.44
2023-05-01T01:48:24.122Z,1005.42
2023-05-01T01:48:45.252Z,1005.42
2023-05-01T01:49:06.262Z,1005.38
2023-05-01T01:49:27.335Z,1005.38
2023-05-01T01:49:48.400Z,1005.38
2023-05-01T01:50:09.462Z,1005.28
2023-05-01T01:50:30.515Z,1005.26
2023-05-01T01:50:51.572Z,1005.28
2023-05-01T01:51:12.633Z,1005.30
2023-05-01T01:51:33.698Z,1005.28
2023-05-01T01:51:54.762Z,1005.28
2023-05-01T01:52:15.801Z,1005.28
2023-05-01T01:52:36.859Z,1005.26
2023-05-01T01:52:58.133Z,1005.26
2023-05-01T01:53:19.228Z,1005.24
2023-05-01T01:53:40.306Z,1005.28
2023-05-01T01:54:01.360Z,1005.26
2023-05-01T01:54:22.398Z,1005.26
2023-05-01T01:54:43.467Z,1005.28
2023-05-01T01:55:04.526Z,1005.26
2023-05-01T01:55:25.572Z,1005.26
2023-05-01T01:55:46.628Z,1005.26
2023-05-01T01:56:07.684Z,1005.24
2023-05-01T01:56:28.767Z,1005.24
2023-05-01T01:56:49.856Z,1005.26
2023-05-01T01:57:10.928Z,1005.28
2023-05-01T01:57:31.982Z,1005.26
2023-05-01T01:57:53.047Z,1005.26
2023-05-01T01:58:14.142Z,1005.26
2023-05-01T01:58:35.234Z,1005.28
2023-05-01T01:58:56.314Z,1005.30
2023-05-01T01:59:17.405Z,1005.24
2023-05-01T01:59:38.463Z,1005.26
2023-05-01T01:59:59.509Z,1005.26
2023-05-01T02:00:20.579Z,1005.28
2023-05-01T02:00:41.645Z,1005.28
2023-05-01T02:01:02.694Z,1005.24
2023-05-01T02:01:23.840Z,1005.26
2023-05-01T02:01:44.983Z,1005.28
2023-05-01T02:02:06.063Z,1005.28
2023-05-01T02:02:27.234Z,1005.24
2023-05-01T02:02:48.646Z,1005.26
2023-05-01T02:03:09.937Z,1005.26
2023-05-01T02:03:31.147Z,1005.24
2023-05-01T02:03:52.463Z,1005.24
2023-05-01T02:04:13.629Z,1005.22
2023-05-01T02:04:34.743Z,1005.22
2023-05-01T02:04:55.809Z,1005.22
2023-05-01T02:05:16.865Z,1005.22
2023-05-01T02:05:37.935Z,1005.24
2023-05-01T02:05:59.025Z,1005.22
2023-05-01T02:06:20.147Z,1005.22
2023-05-01T02:06:41.240Z,1005.20
2023-05-01T02:07:02.286Z,1005.22
2023-05-01T02:07:23.363Z,1005.24
2023-05-01T02:07:44.415Z,1005.24
2023-05-01T02:08:05.478Z,1005.20
2023-05-01T02:08:26.566Z,1005.22
2023-05-01T02:08:47.634Z,1005.22
2023-05-01T02:09:08.909Z,1005.24
2023-05-01T02:09:29.995Z,1005.22
2023-05-01T02:09:51.036Z,1005.24
2023-05-01T02:10:12.088Z,1005.24
2023-05-01T02:10:33.150Z,1005.22
2023-05-01T02:10:54.229Z,1005.22
2023-05-01T02:11:15.282Z,1005.22
2023-05-01T02:11:36.354Z,1005.24
2023-05-01T02:11:57.419Z,1005.22
2023-05-01T02:12:18.483Z,1005.24
2023-05-01T02:12:39.526Z,1005.24
2023-05-01T02:13:00.590Z,1005.16
2023-05-01T02:13:21.662Z,1005.20
2023-05-01T02:13:42.762Z,1005.18
2023-05-01T02:14:04.007Z,1005.20
2023-05-01T02:14:25.135Z,1005.16
2023-05-01T02:14:46.168Z,1005.16
2023-05-01T02:15:07.233Z,1005.18
2023-05-01T02:15:28.302Z,1005.16
2023-05-01T02:15:49.373Z,1005.14
2023-05-01T02:16:10.456Z,1005.16
2023-05-01T02:16:31.573Z,1005.16
2023-05-01T02:16:52.632Z,1005.18
2023-05-01T02:17:13.695Z,1005.14
2023-05-01T02:17:34.770Z,1005.16
2023-05-01T02:17:55.824Z,1005.18
2023-05-01T02:18:16.863Z,1005.18
2023-05-01T02:18:37.926Z,1005.16
2023-05-01T02:18:58.979Z,1005.16
2023-05-01T02:19:20.096Z,1005.18
2023-05-01T02:19:41.196Z,1005.20
2023-05-01T02:20:02.274Z,1005.18
2023-05-01T02:20:23.313Z,1005.20
2023-05-01T02:20:44.392Z,1005.16
2023-05-01T02:21:05.479Z,1005.22
2023-05-01T02:21:26.540Z,1005.18
2023-05-01T02:21:47.568Z,1005.20
2023-05-01T02:22:08.630Z,1005.18
2023-05-01T02:22:29.688Z,1005.18
2023-05-01T02:22:50.772Z,1005.20
2023-05-01T02:23:11.805Z,1005.16
2023-05-01T02:23:32.862Z,1005.20
2023-05-01T02:23:53.910Z,1005.14
2023-05-01T02:24:14.983Z,1005.14
2023-05-01T02:24:36.077Z,1005.16
2023-05-01T02:24:57.234Z,1005.16
2023-05-01T02:25:18.317Z,1005.14
2023-05-01T02:25:39.490Z,1005.16
2023-05-01T02:26:00.571Z,1005.14
2023-05-01T02:26:21.635Z,1005.12
2023-05-01T02:26:42.676Z,1005.12
2023-05-01T02:27:03.752Z,1005.14
2023-05-01T02:27:24.808Z,1005.12
2023-05-01T02:27:45.842Z,1005.12
2023-05-01T02:28:06.946Z,1005.14
2023-05-01T02:28:27.975Z,1005.12
2023-05-01T02:28:49.027Z,1005.16
2023-05-01T02:29:10.098Z,1005.14
2023-05-01T02:29:31.142Z,1005.14
2023-05-01T02:29:52.229Z,1005.18
2023-05-01T02:30:13.401Z,1005.18
2023-05-01T02:30:34.416Z,1005.14
2023-05-01T02:30:55.511Z,1005.16
2023-05-01T02:31:16.610Z,1005.16
2023-05-01T02:31:37.766Z,1005.14
2023-05-01T02:31:59.003Z,1005.16
2023-05-01T02:32:20.220Z,1005.14
2023-05-01T02:32:41.372Z,1005.16
2023-05-01T02:33:02.568Z,1005.12
2023-05-01T02:33:23.614Z,1005.14
2023-05-01T02:33:44.668Z,1005.16
2023-05-01T02:34:05.726Z,1005.18
2023-05-01T02:34:26.792Z,1005.12
2023-05-01T02:34:47.872Z,1005.12
2023-05-01T02:35:08.950Z,1005.16
2023-05-01T02:35:30.213Z,1005.12
2023-05-01T02:35:51.293Z,1005.12
2023-05-01T02:36:12.362Z,1005.14
2023-05-01T02:36:33.424Z,1005.16
2023-05-01T02:36:54.492Z,1005.14
2023-05-01T02:37:15.539Z,1005.14
2023-05-01T02:37:36.599Z,1005.16
2023-05-01T02:37:57.678Z,1005.14
2023-05-01T02:38:18.749Z,1005.14
2023-05-01T02:38:39.777Z,1005.16
2023-05-01T02:39:00.855Z,1005.12
2023-05-01T02:39:21.917Z,1005.14
2023-05-01T02:39:42.977Z,1005.14
2023-05-01T02:40:04.059Z,1005.12
2023-05-01T02:40:25.156Z,1005.14
2023-05-01T02:40:46.281Z,1005.14
2023-05-01T02:41:07.311Z,1005.12
2023-05-01T02:41:28.386Z,1005.14
2023-05-01T02:41:49.460Z,1005.12
2023-05-01T02:42:10.516Z,1005.12
2023-05-01T02:42:31.596Z,1005.12
2023-05-01T02:42:52.684Z,1005.08
2023-05-01T02:43:13.705Z,1005.10
2023-05-01T02:43:34.760Z,1005.12
2023-05-01T02:43:55.833Z,1005.10
2023-05-01T02:44:16.884Z,1005.12
2023-05-01T02:44:37.946Z,1005.06
2023-05-01T02:44:59.050Z,1005.06
2023-05-01T02:45:20.080Z,1005.08
2023-05-01T02:45:41.195Z,1005.06
2023-05-01T02:46:02.357Z,1005.06
2023-05-01T02:46:23.587Z,1005.08
2023-05-01T02:46:44.681Z,1005.06
2023-05-01T02:47:05.837Z,1005.08
2023-05-01T02:47:26.998Z,1005.06
2023-05-01T02:47:48.137Z,1005.06
2023-05-01T02:48:09.263Z,1005.04
2023-05-01T02:48:30.380Z,1005.02
2023-05-01T02:48:51.443Z,1005.06
2023-05-01T02:49:12.519Z,1005.04
2023-05-01T02:49:33.563Z,1005.02
2023-05-01T02:49:54.889Z,1005.02
2023-05-01T02:50:16.152Z,1005.04
2023-05-01T02:50:37.207Z,1005.02
2023-05-01T02:50:58.499Z,1005.02
2023-05-01T02:51:19.810Z,1005.06
2023-05-01T02:51:40.848Z,1005.04
2023-05-01T02:52:01.898Z,1005.06
2023-05-01T02:52:22.970Z,1005.06
2023-05-01T02:52:44.026Z,1005.04
2023-05-01T02:53:05.082Z,1005.04
2023-05-01T02:53:26.164Z,1005.06
2023-05-01T02:53:47.285Z,1005.02
2023-05-01T02:54:08.319Z,1005.04
2023-05-01T02:54:29.375Z,1005.04
2023-05-01T02:54:50.450Z,1005.04
2023-05-01T02:55:11.491Z,1004.98
2023-05-01T02:55:32.596Z,1005.02
2023-05-01T02:55:53.640Z,1005.02
2023-05-01T02:56:14.741Z,1005.02
2023-05-01T02:56:35.878Z,1005.04
2023-05-01T02:56:56.921Z,1005.02
2023-05-01T02:57:17.969Z,1005.04
2023-05-01T02:57:39.059Z,1005.02
2023-05-01T02:58:00.112Z,1005.00
2023-05-01T02:58:21.191Z,1005.02
2023-05-01T02:58:42.242Z,1005.02
2023-05-01T02:59:03.310Z,1005.04
2023-05-01T02:59:24.354Z,1005.06
2023-05-01T02:59:45.425Z,1005.02
2023-05-01T03:00:06.484Z,1005.02
2023-05-01T03:00:27.532Z,1005.00
2023-05-01T03:00:48.662Z,1005.00
2023-05-01T03:01:09.802Z,1005.00
2023-05-01T03:01:30.917Z,1005.04
2023-05-01T03:01:52.081Z,1005.00
2023-05-01T03:02:13.173Z,1005.00
2023-05-01T03:02:34.370Z,1005.00
2023-05-01T03:02:55.498Z,1004.96
2023-05-01T03:03:16.612Z,1005.00
2023-05-01T03:03:37.630Z,1005.00
2023-05-01T03:03:58.754Z,1005.00
2023-05-01T03:04:19.912Z,1004.98
2023-05-01T03:04:41.084Z,1004.96
2023-05-01T03:05:02.183Z,1004.96
2023-05-01T03:05:23.223Z,1004.96
2023-05-01T03:05:44.287Z,1004.96
2023-05-01T03:06:05.412Z,1004.96
2023-05-01T03:06:26.516Z,1004.96
2023-05-01T03:06:47.675Z,1004.92
2023-05-01T03:07:08.843Z,1004.92
2023-05-01T03:07:29.891Z,1004.94
2023-05-01T03:07:50.968Z,1004.92
2023-05-01T03:08:12.020Z,1004.92
2023-05-01T03:08:33.076Z,1004.92
2023-05-01T03:08:54.131Z,1004.90
2023-05-01T03:09:15.252Z,1004.92
2023-05-01T03:09:36.282Z,1004.92
2023-05-01T03:09:57.581Z,1004.90
2023-05-01T03:10:18.840Z,1004.92
2023-05-01T03:10:39.898Z,1004.90
2023-05-01T03:11:00.968Z,1004.92
2023-05-01T03:11:22.049Z,1004.88
2023-05-01T03:11:43.108Z,1004.90
2023-05-01T03:12:04.277Z,1004.90
2023-05-01T03:12:25.508Z,1004.88
2023-05-01T03:12:46.583Z,1004.90
2023-05-01T03:13:07.626Z,1004.90
2023-05-01T03:13:28.692Z,1004.90
2023-05-01T03:13:49.753Z,1004.88
2023-05-01T03:14:10.817Z,1004.90
2023-05-01T03:14:31.885Z,1004.90
2023-05-01T03:14:52.981Z,1004.90
2023-05-01T03:15:14.045Z,1004.90
2023-05-01T03:15:35.132Z,1004.90
2023-05-01T03:15:56.246Z,1004.86
2023-05-01T03:16:17.338Z,1004.90
2023-05-01T03:16:38.429Z,1004.88
2023-05-01T03:16:59.470Z,1004.90
2023-05-01T03:17:20.573Z,1004.88
2023-05-01T03:17:41.972Z,1004.88
2023-05-01T03:18:03.100Z,1004.90
2023-05-01T03:18:24.279Z,1004.90
2023-05-01T03:18:45.327Z,1004.88
2023-05-01T03:19:06.381Z,1004.88
2023-05-01T03:19:27.467Z,1004.86
2023-05-01T03:19:48.532Z,1004.90
2023-05-01T03:20:09.612Z,1004.88
2023-05-01T03:20:30.643Z,1004.88
2023-05-01T03:20:51.710Z,1004.88
2023-05-01T03:21:12.802Z,1004.88
2023-05-01T03:21:33.842Z,1004.88
2023-05-01T03:21:54.891Z,1004.92
2023-05-01T03:22:15.960Z,1004.86
2023-05-01T03:22:37.073Z,1004.88
2023-05-01T03:22:58.189Z,1004.88
2023-05-01T03:23:19.220Z,1004.88
2023-05-01T03:23:40.289Z,1004.86
2023-05-01T03:24:01.339Z,1004.86
2023-05-01T03:24:22.406Z,1004.86
2023-05-01T03:24:43.490Z,1004.86
2023-05-01T03:25:04.548Z,1004.86
2023-05-01T03:25:25.675Z,1004.86
2023-05-01T03:25:46.730Z,1004.88
2023-05-01T03:26:07.792Z,1004.88
2023-05-01T03:26:28.852Z,1004.90
2023-05-01T03:26:49.915Z,1004.92
2023-05-01T03:27:10.987Z,1004.92
2023-05-01T03:27:32.060Z,1004.90
2023-05-01T03:27:55.091Z,1004.92
2023-05-01T03:28:16.651Z,1004.92
2023-05-01T03:28:37.676Z,1004.92
2023-05-01T03:28:58.749Z,1004.92
2023-05-01T03:29:19.808Z,1004.88
2023-05-01T03:29:40.917Z,1004.90
2023-05-01T03:30:01.983Z,1004.90
2023-05-01T03:30:23.043Z,1004.86
2023-05-01T03:30:44.100Z,1004.88
2023-05-01T03:31:05.188Z,1004.88
2023-05-01T03:31:26.271Z,1004.88
2023-05-01T03:31:47.386Z,1004.86
2023-05-01T03:32:08.473Z,1004.86
2023-05-01T03:32:30.009Z,1004.88
2023-05-01T03:32:51.106Z,1004.86
2023-05-01T03:33:12.199Z,1004.86
2023-05-01T03:33:33.294Z,1004.86
2023-05-01T03:33:54.353Z,1004.84
2023-05-01T03:34:15.460Z,1004.86
2023-05-01T03:34:36.493Z,1004.81
2023-05-01T03:34:57.681Z,1004.81
2023-05-01T03:35:18.851Z,1004.81
2023-05-01T03:35:39.942Z,1004.83
2023-05-01T03:36:01.077Z,1004.88
2023-05-01T03:36:22.161Z,1004.83
2023-05-01T03:36:43.202Z,1004.83
2023-05-01T03:37:04.274Z,1004.83
2023-05-01T03:37:25.339Z,1004.84
2023-05-01T03:37:46.399Z,1004.84
2023-05-01T03:38:07.488Z,1004.83
2023-05-01T03:38:28.616Z,1004.83
2023-05-01T03:38:49.673Z,1004.84
2023-05-01T03:39:10.728Z,1004.84
2023-05-01T03:39:31.812Z,1004.84
2023-05-01T03:39:53.011Z,1004.83
2023-05-01T03:40:14.088Z,1004.84
2023-05-01T03:40:35.152Z,1004.84
2023-05-01T03:40:56.228Z,1004.83
2023-05-01T03:41:17.273Z,1004.84
2023-05-01T03:41:38.329Z,1004.84
2023-05-01T03:41:59.399Z,1004.84
2023-05-01T03:42:20.466Z,1004.86
2023-05-01T03:42:41.511Z,1004.84
2023-05-01T03:43:02.619Z,1004.86
2023-05-01T03:43:23.672Z,1004.86
2023-05-01T03:43:44.755Z,1004.84
2023-05-01T03:44:05.849Z,1004.84
2023-05-01T03:44:26.900Z,1004.86
2023-05-01T03:44:47.943Z,1004.86
2023-05-01T03:45:09.000Z,1004.84
2023-05-01T03:45:30.066Z,1004.86
2023-05-01T03:45:51.175Z,1004.86
2023-05-01T03:46:12.319Z,1004.84
2023-05-01T03:46:33.407Z,1004.86
2023-05-01T03:46:54.466Z,1004.84
2023-05-01T03:47:15.531Z,1004.84
2023-05-01T03:47:36.644Z,1004.83
2023-05-01T03:47:57.779Z,1004.83
2023-05-01T03:48:18.873Z,1004.84
2023-05-01T03:48:39.920Z,1004.84
2023-05-01T03:49:01.185Z,1004.84
2023-05-01T03:49:22.290Z,1004.83
2023-05-01T03:49:43.375Z,1004.84
2023-05-01T03:50:04.432Z,1004.86
2023-05-01T03:50:25.485Z,1004.86
2023-05-01T03:50:46.564Z,1004.84
2023-05-01T03:51:07.663Z,1004.83
2023-05-01T03:51:28.705Z,1004.83
2023-05-01T03:51:49.763Z,1004.84
2023-05-01T03:52:10.812Z,1004.84
2023-05-01T03:52:31.871Z,1004.84
2023-05-01T03:52:52.931Z,1004.81
2023-05-01T03:53:14.007Z,1004.83
2023-05-01T03:53:35.043Z,1004.79
2023-05-01T03:53:56.098Z,1004.83
2023-05-01T03:54:17.407Z,1004.83
2023-05-01T03:54:38.661Z,1004.83
2023-05-01T03:54:59.711Z,1004.84
2023-05-01T03:55:20.769Z,1004.81
2023-05-01T03:55:41.823Z,1004.83
2023-05-01T03:56:02.882Z,1004.81
2023-05-01T03:56:23.957Z,1004.81
2023-05-01T03:56:45.068Z,1004.81
2023-05-01T03:57:06.099Z,1004.81
2023-05-01T03:57:27.159Z,1004.79
2023-05-01T03:57:48.216Z,1004.81
2023-05-01T03:58:09.464Z,1004.81
2023-05-01T03:58:30.472Z,1004.81
2023-05-01T03:58:51.530Z,1004.81
2023-05-01T03:59:12.599Z,1004.81
2023-05-01T03:59:33.862Z,1004.83
2023-05-01T03:59:55.399Z,1004.81
2023-05-01T04:00:16.617Z,1004.84
2023-05-01T04:00:37.695Z,1004.83
2023-05-01T04:00:58.736Z,1004.81
2023-05-01T04:01:19.807Z,1004.83
2023-05-01T04:01:40.875Z,1004.83
2023-05-01T04:02:02.042Z,1004.83
2023-05-01T04:02:23.219Z,1004.81
2023-05-01T04:02:44.512Z,1004.81
2023-05-01T04:03:05.839Z,1004.83
2023-05-01T04:03:27.299Z,1004.84
2023-05-01T04:03:48.598Z,1004.84
2023-05-01T04:04:09.909Z,1004.83
2023-05-01T04:04:31.079Z,1004.84
2023-05-01T04:04:52.206Z,1004.83
2023-05-01T04:05:13.311Z,1004.83
2023-05-01T04:05:34.356Z,1004.84
2023-05-01T04:05:55.419Z,1004.83
2023-05-01T04:06:16.517Z,1004.84
2023-05-01T04:06:37.675Z,1004.83
2023-05-01T04:06:58.766Z,1004.84
2023-05-01T04:07:19.842Z,1004.83
2023-05-01T04:07:40.887Z,1004.83
2023-05-01T04:08:01.960Z,1004.81
2023-05-01T04:08:23.045Z,1004.83
2023-05-01T04:08:44.099Z,1004.84
2023-05-01T04:09:05.142Z,1004.84
2023-05-01T04:09:26.222Z,1004.83
2023-05-01T04:09:47.265Z,1004.81
2023-05-01T04:10:08.374Z,1004.83
2023-05-01T04:10:29.513Z,1004.83
2023-05-01T04:10:50.609Z,1004.81
2023-05-01T04:11:11.653Z,1004.81
2023-05-01T04:11:32.708Z,1004.83
2023-05-01T04:11:53.761Z,1004.84
2023-05-01T04:12:14.824Z,1004.81
2023-05-01T04:12:35.876Z,1004.81
2023-05-01T04:12:56.958Z,1004.83
2023-05-01T04:13:18.030Z,1004.79
2023-05-01T04:13:39.076Z,1004.83
2023-05-01T04:14:00.182Z,1004.81
2023-05-01T04:14:21.219Z,1004.83
2023-05-01T04:14:42.303Z,1004.84
2023-05-01T04:15:03.361Z,1004.83